Terminal Aerodrome Forecast
Issued by NWS

Home | Current Version | Previous Version | Graphics & Text | Print | Product List | Glossary On
Versions: 1 2 3 4 5 6 7 8 9 10 11 12 13 14 15 16 17 18
000
FTUS43 KTOP 250900 AAA
TAFFOE
TAF AMD
KFOE 250945Z 2510/2606 22006KT P6SM BKN014 BKN080
     FM251300 18013KT P6SM VCSH SCT012 BKN050
     FM251800 18016G26KT P6SM BKN050
     FM260200 18012KT P6SM VCTS SCT040CB BKN250=

USA.gov is the U.S. government's official web portal to all federal, state and local government web resources and services.